createdAt,value
2022-07-27T00:00:09.110Z,978.33
2022-07-27T00:06:40.177Z,978.31
2022-07-27T00:13:05.741Z,978.26
2022-07-27T00:19:34.216Z,978.22
2022-07-27T00:26:07.328Z,978.25
2022-07-27T00:32:32.700Z,978.21
2022-07-27T00:39:00.857Z,978.22
2022-07-27T00:45:31.323Z,978.18
2022-07-27T00:51:59.423Z,978.11
2022-07-27T00:58:27.000Z,978.1
2022-07-27T01:04:57.757Z,978.11
2022-07-27T01:11:26.263Z,978.16
2022-07-27T01:18:05.762Z,978.18
2022-07-27T01:24:35.980Z,978.15
2022-07-27T01:31:06.377Z,978.18
2022-07-27T01:37:32.156Z,978.12
2022-07-27T01:44:02.093Z,978.1
2022-07-27T01:50:25.789Z,978.05
2022-07-27T01:56:49.994Z,978.02
2022-07-27T02:03:19.306Z,977.98
2022-07-27T02:09:42.827Z,978.05
2022-07-27T02:16:17.843Z,978.09
2022-07-27T02:22:53.850Z,978.05
2022-07-27T02:29:20.289Z,978.03
2022-07-27T02:35:47.883Z,978
2022-07-27T02:42:14.545Z,977.97
2022-07-27T02:48:42.441Z,978.01
2022-07-27T02:55:10.124Z,978.06
2022-07-27T03:01:33.480Z,978.03
2022-07-27T03:07:53.864Z,977.94
2022-07-27T03:14:27.440Z,977.96
2022-07-27T03:20:58.389Z,977.99
2022-07-27T03:27:45.034Z,977.99
2022-07-27T03:34:13.038Z,978.04
2022-07-27T03:40:45.436Z,977.99
2022-07-27T03:47:17.117Z,977.97
2022-07-27T03:53:41.011Z,978.03
2022-07-27T04:00:12.174Z,978.04
2022-07-27T04:06:42.416Z,978.03
2022-07-27T04:13:18.138Z,978.03
2022-07-27T04:19:45.345Z,978.05
2022-07-27T04:26:11.305Z,978.08
2022-07-27T04:32:39.436Z,978.05
2022-07-27T04:39:11.139Z,978.09
2022-07-27T04:45:36.375Z,978.08
2022-07-27T04:52:05.868Z,978.14
2022-07-27T04:58:28.213Z,978.19
2022-07-27T05:05:01.016Z,978.23
2022-07-27T05:11:32.199Z,978.33
2022-07-27T05:17:56.098Z,978.33
2022-07-27T05:24:18.980Z,978.39
2022-07-27T05:30:43.380Z,978.45
2022-07-27T05:37:07.094Z,978.52
2022-07-27T05:43:38.943Z,978.57
2022-07-27T05:50:11.441Z,978.65
2022-07-27T05:56:36.466Z,978.69
2022-07-27T06:03:01.198Z,978.69
2022-07-27T06:09:28.360Z,978.71
2022-07-27T06:15:53.909Z,978.72
2022-07-27T06:22:18.942Z,978.81
2022-07-27T06:28:48.396Z,978.83
2022-07-27T06:35:15.435Z,978.88
2022-07-27T06:41:43.902Z,978.88
2022-07-27T06:48:08.808Z,978.85
2022-07-27T06:54:42.490Z,978.87
2022-07-27T07:01:17.494Z,978.85
2022-07-27T07:07:44.409Z,978.83
2022-07-27T07:14:18.272Z,978.87
2022-07-27T07:20:45.944Z,978.91
2022-07-27T07:27:08.277Z,978.91
2022-07-27T07:33:31.066Z,978.94
2022-07-27T07:39:52.083Z,978.96
2022-07-27T07:46:22.569Z,978.94
2022-07-27T07:52:56.819Z,979
2022-07-27T07:59:21.148Z,979.02
2022-07-27T08:05:57.484Z,978.99
2022-07-27T08:12:28.125Z,978.94
2022-07-27T08:18:57.136Z,978.9
2022-07-27T08:25:26.698Z,978.93
2022-07-27T08:31:57.500Z,978.92
2022-07-27T08:38:46.030Z,978.92
2022-07-27T08:45:21.369Z,978.92
2022-07-27T08:52:06.458Z,978.98
2022-07-27T08:58:46.452Z,978.92
2022-07-27T09:05:20.383Z,978.88
2022-07-27T09:12:15.301Z,978.84
2022-07-27T09:18:47.285Z,978.81
2022-07-27T09:26:11.668Z,978.79
2022-07-27T09:32:53.381Z,978.84
2022-07-27T09:39:42.544Z,978.84
2022-07-27T09:46:34.780Z,978.79
2022-07-27T09:53:45.274Z,978.74
2022-07-27T10:00:40.090Z,978.76
2022-07-27T10:07:18.079Z,978.8
2022-07-27T10:13:48.010Z,978.84
2022-07-27T10:20:26.375Z,978.93
2022-07-27T10:27:02.461Z,978.95
2022-07-27T10:33:54.029Z,978.98
2022-07-27T10:40:55.105Z,978.95
2022-07-27T10:47:42.843Z,978.95
2022-07-27T10:54:31.413Z,978.92
2022-07-27T11:01:25.597Z,978.89
2022-07-27T11:08:35.923Z,978.88
2022-07-27T11:14:54.607Z,978.84
2022-07-27T11:21:50.083Z,978.82
2022-07-27T11:28:45.581Z,978.79
2022-07-27T11:35:21.235Z,978.75
2022-07-27T11:42:18.854Z,978.68
2022-07-27T11:49:11.310Z,978.59
2022-07-27T11:55:47.462Z,978.51
2022-07-27T12:02:33.140Z,978.48
2022-07-27T12:09:39.776Z,978.42
2022-07-27T12:16:37.079Z,978.37
2022-07-27T12:23:26.460Z,978.33
2022-07-27T12:30:08.040Z,978.22
2022-07-27T12:37:00.150Z,978.24
2022-07-27T12:43:34.099Z,978.26
2022-07-27T12:50:15.465Z,978.16
2022-07-27T12:57:00.113Z,978.19
2022-07-27T13:03:37.648Z,978.17
2022-07-27T13:10:23.884Z,978.19
2022-07-27T13:16:54.680Z,978.17
2022-07-27T13:23:23.423Z,978.2
2022-07-27T13:29:45.323Z,978.27
2022-07-27T13:36:27.523Z,978.27
2022-07-27T13:42:51.466Z,978.15
2022-07-27T13:49:19.180Z,978.14
2022-07-27T13:55:51.419Z,978.16
2022-07-27T14:02:31.256Z,978.08
2022-07-27T14:09:01.416Z,978.1
2022-07-27T14:15:53.846Z,978.04
2022-07-27T14:22:44.361Z,977.98
2022-07-27T14:29:11.345Z,977.94
2022-07-27T14:35:41.617Z,977.97
2022-07-27T14:42:17.061Z,977.97
2022-07-27T14:49:06.841Z,977.96
2022-07-27T14:55:33.052Z,977.85
2022-07-27T15:02:03.684Z,977.79
2022-07-27T15:08:29.379Z,977.67
2022-07-27T15:14:54.822Z,977.64
2022-07-27T15:21:27.154Z,977.59
2022-07-27T15:27:52.511Z,977.5
2022-07-27T15:34:18.982Z,977.55
2022-07-27T15:40:42.687Z,977.52
2022-07-27T15:47:13.346Z,977.53
2022-07-27T15:53:44.767Z,977.46
2022-07-27T16:00:16.740Z,977.43
2022-07-27T16:06:44.255Z,977.45
2022-07-27T16:13:13.139Z,977.39
2022-07-27T16:19:40.207Z,977.4
2022-07-27T16:26:09.068Z,977.32
2022-07-27T16:32:35.734Z,977.24
2022-07-27T16:39:00.129Z,977.24
2022-07-27T16:45:21.030Z,977.25
2022-07-27T16:51:46.219Z,977.29
2022-07-27T16:58:14.562Z,977.26
2022-07-27T17:04:45.141Z,977.25
2022-07-27T17:11:22.249Z,977.28
2022-07-27T17:17:51.415Z,977.3
2022-07-27T17:24:20.616Z,977.34
2022-07-27T17:30:47.574Z,977.32
2022-07-27T17:37:19.142Z,977.31
2022-07-27T17:43:42.721Z,977.29
2022-07-27T17:50:05.507Z,977.32
2022-07-27T17:56:35.360Z,977.38
2022-07-27T18:03:05.791Z,977.38
2022-07-27T18:09:30.711Z,977.41
2022-07-27T18:16:00.722Z,977.47
2022-07-27T18:22:26.271Z,977.45
2022-07-27T18:28:48.969Z,977.51
2022-07-27T18:35:22.270Z,977.55
2022-07-27T18:41:51.898Z,977.6
2022-07-27T18:48:18.281Z,977.69
2022-07-27T18:54:45.544Z,977.63
2022-07-27T19:01:13.852Z,977.63
2022-07-27T19:07:48.606Z,977.73
2022-07-27T19:14:14.643Z,977.83
2022-07-27T19:20:41.655Z,977.88
2022-07-27T19:27:07.236Z,977.93
2022-07-27T19:33:32.598Z,977.99
2022-07-27T19:40:41.917Z,978.02
2022-07-27T19:46:44.600Z,978.07
2022-07-27T19:53:16.261Z,978.11
2022-07-27T19:59:55.246Z,978.19
2022-07-27T20:06:17.656Z,978.2
2022-07-27T20:12:50.856Z,978.27
2022-07-27T20:19:28.386Z,978.28
2022-07-27T20:25:53.076Z,978.34
2022-07-27T20:32:21.822Z,978.29
2022-07-27T20:38:57.797Z,978.28
2022-07-27T20:45:28.954Z,978.28
2022-07-27T20:51:55.302Z,978.37
2022-07-27T20:58:24.295Z,978.37
2022-07-27T21:04:50.348Z,978.44
2022-07-27T21:11:18.863Z,978.43
2022-07-27T21:17:44.835Z,978.44
2022-07-27T21:24:12.875Z,978.41
2022-07-27T21:30:41.752Z,978.39
2022-07-27T21:37:13.307Z,978.4
2022-07-27T21:43:40.231Z,978.41
2022-07-27T21:50:14.377Z,978.5
2022-07-27T21:56:54.691Z,978.38
2022-07-27T22:03:15.270Z,978.36
2022-07-27T22:09:49.449Z,978.33
2022-07-27T22:16:15.578Z,978.34
2022-07-27T22:22:39.403Z,978.44
2022-07-27T22:29:06.878Z,978.4
2022-07-27T22:35:35.294Z,978.46
2022-07-27T22:42:03.033Z,978.39
2022-07-27T22:48:26.409Z,978.39
2022-07-27T22:54:50.776Z,978.44
2022-07-27T23:01:45.507Z,978.47
2022-07-27T23:07:56.670Z,978.46
2022-07-27T23:14:22.930Z,978.53
2022-07-27T23:20:49.011Z,978.46
2022-07-27T23:27:12.665Z,978.45
2022-07-27T23:33:44.536Z,978.41
2022-07-27T23:40:14.905Z,978.46
2022-07-27T23:46:40.763Z,978.43
2022-07-27T23:53:14.777Z,978.44
2022-07-27T23:59:36.842Z,978.34
